Flight Briefing for CPX822

Departure Arrival
Grantley Adams International Airport (TBPB)
Click to view FAA NOTAMS
Patrick Air Force Base (KCOF)
Click to view FAA NOTAMS
Departure Time Arrival Time
N/A N/A
Aircraft Distance
B757-200SF 1490nm
Departure METAR Arrival METAR
TBPB 192200Z 07016KT 9999 SCT020 SCT038 26/19 Q1015 NOSIG KCOF 192156Z AUTO 12012KT 10SM CLR 24/24 A3013 RMK AO2 SLP207 T02380236 $
Suggested Route
BGI UA555 ILURI A555 COY SJU RTE6 BEANO Y290 HAGIT Y352 ZQA A555 ZBV BR57V WIERS BR22V FLL LBV COSTR3


View recent IFR Routes data
Notes
USTRANSCOM CONTRACT FLIGHT

Charts and Procedures

Charts for TBPB
No chart available
Charts for KCOF
No chart available

Ventusky Weather




{"cat":null,"equip":null,"transponder":null,"pbn":"PBN\/","maxpax":null,"oew":"0.0","mzfw":"0.0","mtow":"0.0","mlw":"0.0","maxfuel":"0.0"} DEVELOPMENTAL TEST USE ONLY